sensor_id;sensor_type;location;lat;lon;timestamp;pressure;altitude;pressure_sealevel;temperature;humidity
6136;BME280;24008;42.664;23.372;2022-07-29T00:01:52;94920.84;;;19.14;93.91
6136;BME280;24008;42.664;23.372;2022-07-29T00:04:19;94917.47;;;19.13;93.94
6136;BME280;24008;42.664;23.372;2022-07-29T00:06:46;94928.81;;;19.12;93.93
6136;BME280;24008;42.664;23.372;2022-07-29T00:09:13;94940.16;;;19.11;94.15
6136;BME280;24008;42.664;23.372;2022-07-29T00:11:39;94928.78;;;19.05;94.50
6136;BME280;24008;42.664;23.372;2022-07-29T00:14:07;94941.16;;;19.10;95.12
6136;BME280;24008;42.664;23.372;2022-07-29T00:16:34;94935.97;;;19.10;94.05
6136;BME280;24008;42.664;23.372;2022-07-29T00:19:02;94941.16;;;19.10;94.22
6136;BME280;24008;42.664;23.372;2022-07-29T00:21:29;94899.88;;;18.81;94.47
6136;BME280;24008;42.664;23.372;2022-07-29T00:23:56;94919.47;;;18.90;94.66
6136;BME280;24008;42.664;23.372;2022-07-29T00:26:23;94944.25;;;18.99;94.76
6136;BME280;24008;42.664;23.372;2022-07-29T00:28:50;94939.06;;;18.99;94.90
6136;BME280;24008;42.664;23.372;2022-07-29T00:31:17;94939.06;;;18.99;94.48
6136;BME280;24008;42.664;23.372;2022-07-29T00:33:44;94937.09;;;19.01;94.34
6136;BME280;24008;42.664;23.372;2022-07-29T00:36:12;94933.94;;;19.05;94.14
6136;BME280;24008;42.664;23.372;2022-07-29T00:38:38;94934.75;;;19.06;93.94
6136;BME280;24008;42.664;23.372;2022-07-29T00:41:08;94903.56;;;18.93;94.01
6136;BME280;24008;42.664;23.372;2022-07-29T00:43:35;94892.13;;;18.81;94.37
6136;BME280;24008;42.664;23.372;2022-07-29T00:46:02;94922.53;;;19.00;94.65
6136;BME280;24008;42.664;23.372;2022-07-29T00:48:29;94937.16;;;19.08;96.49
6136;BME280;24008;42.664;23.372;2022-07-29T00:50:57;94919.28;;;18.91;98.41
6136;BME280;24008;42.664;23.372;2022-07-29T00:53:26;94941.66;;;18.99;100.00
6136;BME280;24008;42.664;23.372;2022-07-29T00:55:53;94858.31;;;18.25;100.00
6136;BME280;24008;42.664;23.372;2022-07-29T00:58:20;94940.91;;;18.84;100.00
6136;BME280;24008;42.664;23.372;2022-07-29T01:00:47;94941.06;;;18.76;100.00
6136;BME280;24008;42.664;23.372;2022-07-29T01:03:14;94926.78;;;18.58;100.00
6136;BME280;24008;42.664;23.372;2022-07-29T01:05:42;94937.53;;;18.62;100.00
6136;BME280;24008;42.664;23.372;2022-07-29T01:08:11;94938.44;;;18.54;100.00
6136;BME280;24008;42.664;23.372;2022-07-29T01:10:42;94923.41;;;18.43;100.00
6136;BME280;24008;42.664;23.372;2022-07-29T01:13:10;94911.56;;;18.34;100.00
6136;BME280;24008;42.664;23.372;2022-07-29T01:15:43;94932.03;;;18.50;100.00
6136;BME280;24008;42.664;23.372;2022-07-29T01:18:16;94939.56;;;18.45;100.00
6136;BME280;24008;42.664;23.372;2022-07-29T01:20:57;94936.09;;;18.38;100.00
6136;BME280;24008;42.664;23.372;2022-07-29T01:23:45;94938.44;;;18.33;100.00
6136;BME280;24008;42.664;23.372;2022-07-29T01:26:41;94928.44;;;18.30;100.00
6136;BME280;24008;42.664;23.372;2022-07-29T01:29:26;94925.22;;;18.28;100.00
6136;BME280;24008;42.664;23.372;2022-07-29T01:31:58;94921.66;;;18.29;100.00
6136;BME280;24008;42.664;23.372;2022-07-29T01:34:32;94934.59;;;18.29;100.00
6136;BME280;24008;42.664;23.372;2022-07-29T01:37:06;94904.03;;;18.18;100.00
6136;BME280;24008;42.664;23.372;2022-07-29T01:39:36;94921.31;;;18.32;100.00
6136;BME280;24008;42.664;23.372;2022-07-29T01:42:09;94901.44;;;18.18;100.00
6136;BME280;24008;42.664;23.372;2022-07-29T01:44:45;94755.69;;;17.17;100.00
6136;BME280;24008;42.664;23.372;2022-07-29T01:47:19;94919.69;;;18.31;100.00
6136;BME280;24008;42.664;23.372;2022-07-29T01:49:51;94890.47;;;18.16;100.00
6136;BME280;24008;42.664;23.372;2022-07-29T01:52:25;94915.69;;;18.28;100.00
6136;BME280;24008;42.664;23.372;2022-07-29T01:54:57;94901.94;;;18.28;100.00
6136;BME280;24008;42.664;23.372;2022-07-29T01:57:28;94907.13;;;18.28;100.00
6136;BME280;24008;42.664;23.372;2022-07-29T01:59:58;94889.84;;;18.14;100.00
6136;BME280;24008;42.664;23.372;2022-07-29T02:02:27;94915.41;;;18.23;100.00
6136;BME280;24008;42.664;23.372;2022-07-29T02:04:55;94904.38;;;18.15;100.00
6136;BME280;24008;42.664;23.372;2022-07-29T02:07:24;94883.94;;;17.98;100.00
6136;BME280;24008;42.664;23.372;2022-07-29T02:09:55;94897.56;;;18.07;100.00
6136;BME280;24008;42.664;23.372;2022-07-29T02:12:24;94855.44;;;17.77;100.00
6136;BME280;24008;42.664;23.372;2022-07-29T02:14:53;94893.38;;;18.06;100.00
6136;BME280;24008;42.664;23.372;2022-07-29T02:17:25;94899.16;;;18.08;100.00
6136;BME280;24008;42.664;23.372;2022-07-29T02:19:56;94897.19;;;18.10;100.00
6136;BME280;24008;42.664;23.372;2022-07-29T02:22:24;94895.59;;;18.09;100.00
6136;BME280;24008;42.664;23.372;2022-07-29T02:24:53;94894.78;;;18.09;100.00
6136;BME280;24008;42.664;23.372;2022-07-29T02:27:22;94894.59;;;18.10;100.00
6136;BME280;24008;42.664;23.372;2022-07-29T02:29:51;94895.19;;;18.12;100.00
6136;BME280;24008;42.664;23.372;2022-07-29T02:32:22;94868.78;;;17.95;100.00
6136;BME280;24008;42.664;23.372;2022-07-29T02:34:51;94898.84;;;18.18;100.00
6136;BME280;24008;42.664;23.372;2022-07-29T02:37:19;94874.09;;;18.09;100.00
6136;BME280;24008;42.664;23.372;2022-07-29T02:39:48;94864.38;;;18.11;100.00
6136;BME280;24008;42.664;23.372;2022-07-29T02:42:21;94878.13;;;18.32;100.00
6136;BME280;24008;42.664;23.372;2022-07-29T02:44:49;94821.88;;;17.98;100.00
6136;BME280;24008;42.664;23.372;2022-07-29T02:47:18;94874.59;;;18.40;100.00
6136;BME280;24008;42.664;23.372;2022-07-29T02:49:55;94869.41;;;18.40;100.00
6136;BME280;24008;42.664;23.372;2022-07-29T02:52:26;94851.97;;;18.27;100.00
6136;BME280;24008;42.664;23.372;2022-07-29T02:55:00;94858.94;;;18.27;100.00
6136;BME280;24008;42.664;23.372;2022-07-29T02:57:32;94870.59;;;18.38;100.00
6136;BME280;24008;42.664;23.372;2022-07-29T03:00:05;94871.78;;;18.35;100.00
6136;BME280;24008;42.664;23.372;2022-07-29T03:02:38;94883.91;;;18.34;100.00
6136;BME280;24008;42.664;23.372;2022-07-29T03:05:12;94877.06;;;18.27;100.00
6136;BME280;24008;42.664;23.372;2022-07-29T03:07:44;94886.53;;;18.20;100.00
6136;BME280;24008;42.664;23.372;2022-07-29T03:10:13;94804.53;;;17.78;100.00
6136;BME280;24008;42.664;23.372;2022-07-29T03:12:41;94826.91;;;17.85;100.00
6136;BME280;24008;42.664;23.372;2022-07-29T03:15:09;94873.16;;;18.16;100.00
6136;BME280;24008;42.664;23.372;2022-07-29T03:17:37;94876.38;;;18.18;100.00
6136;BME280;24008;42.664;23.372;2022-07-29T03:20:06;94796.63;;;17.64;100.00
6136;BME280;24008;42.664;23.372;2022-07-29T03:22:39;94859.72;;;18.06;100.00
6136;BME280;24008;42.664;23.372;2022-07-29T03:25:09;94883.34;;;18.18;100.00
6136;BME280;24008;42.664;23.372;2022-07-29T03:27:36;94820.44;;;17.75;100.00
6136;BME280;24008;42.664;23.372;2022-07-29T03:30:04;94883.28;;;18.11;100.00
6136;BME280;24008;42.664;23.372;2022-07-29T03:32:32;94880.06;;;18.09;100.00
6136;BME280;24008;42.664;23.372;2022-07-29T03:34:59;94883.63;;;18.08;100.00
6136;BME280;24008;42.664;23.372;2022-07-29T03:37:26;94888.19;;;18.06;100.00
6136;BME280;24008;42.664;23.372;2022-07-29T03:39:56;94860.13;;;17.88;100.00
6136;BME280;24008;42.664;23.372;2022-07-29T03:42:25;94819.16;;;17.56;100.00
6136;BME280;24008;42.664;23.372;2022-07-29T03:44:54;94881.94;;;18.00;100.00
6136;BME280;24008;42.664;23.372;2022-07-29T03:47:25;94887.50;;;17.97;100.00
6136;BME280;24008;42.664;23.372;2022-07-29T03:49:57;94867.81;;;17.82;100.00
6136;BME280;24008;42.664;23.372;2022-07-29T03:52:26;94892.28;;;18.00;100.00
6136;BME280;24008;42.664;23.372;2022-07-29T03:54:54;94851.06;;;17.78;100.00
6136;BME280;24008;42.664;23.372;2022-07-29T03:57:24;94872.34;;;17.94;100.00
6136;BME280;24008;42.664;23.372;2022-07-29T03:59:52;94814.44;;;17.59;100.00
6136;BME280;24008;42.664;23.372;2022-07-29T04:02:19;94887.56;;;18.04;100.00
6136;BME280;24008;42.664;23.372;2022-07-29T04:04:48;94819.72;;;17.66;100.00
6136;BME280;24008;42.664;23.372;2022-07-29T04:07:15;94876.50;;;18.10;100.00
6136;BME280;24008;42.664;23.372;2022-07-29T04:09:42;94903.28;;;18.24;100.00
6136;BME280;24008;42.664;23.372;2022-07-29T04:12:10;94878.97;;;18.18;100.00
6136;BME280;24008;42.664;23.372;2022-07-29T04:14:37;94898.25;;;18.37;100.00
6136;BME280;24008;42.664;23.372;2022-07-29T04:17:04;94831.41;;;17.98;100.00
6136;BME280;24008;42.664;23.372;2022-07-29T04:19:32;94874.78;;;18.39;100.00
6136;BME280;24008;42.664;23.372;2022-07-29T04:21:59;94897.72;;;18.63;100.00
6136;BME280;24008;42.664;23.372;2022-07-29T04:24:27;94855.31;;;18.43;100.00
6136;BME280;24008;42.664;23.372;2022-07-29T04:26:54;94878.88;;;18.69;100.00
6136;BME280;24008;42.664;23.372;2022-07-29T04:29:22;94894.56;;;18.89;100.00
6136;BME280;24008;42.664;23.372;2022-07-29T04:31:49;94882.06;;;18.99;99.52
6136;BME280;24008;42.664;23.372;2022-07-29T04:34:16;94873.13;;;19.01;97.10
6136;BME280;24008;42.664;23.372;2022-07-29T04:36:43;94893.97;;;19.21;96.81
6136;BME280;24008;42.664;23.372;2022-07-29T04:39:10;94902.66;;;19.35;96.51
6136;BME280;24008;42.664;23.372;2022-07-29T04:41:36;94880.38;;;19.40;96.01
6136;BME280;24008;42.664;23.372;2022-07-29T04:44:04;94906.97;;;19.90;94.06
6136;BME280;24008;42.664;23.372;2022-07-29T04:46:33;94917.00;;;21.07;87.28
6136;BME280;24008;42.664;23.372;2022-07-29T04:49:00;94882.94;;;22.12;79.93
6136;BME280;24008;42.664;23.372;2022-07-29T04:51:27;94904.09;;;23.42;73.84
6136;BME280;24008;42.664;23.372;2022-07-29T04:53:54;94914.44;;;24.39;69.93
6136;BME280;24008;42.664;23.372;2022-07-29T04:56:21;94909.53;;;25.15;66.19
6136;BME280;24008;42.664;23.372;2022-07-29T04:58:48;94914.19;;;25.94;62.13
6136;BME280;24008;42.664;23.372;2022-07-29T05:01:15;94856.72;;;26.16;59.08
6136;BME280;24008;42.664;23.372;2022-07-29T05:03:44;94917.22;;;26.71;58.44
6136;BME280;24008;42.664;23.372;2022-07-29T05:06:11;94921.91;;;26.69;58.10
6136;BME280;24008;42.664;23.372;2022-07-29T05:08:38;94923.03;;;26.57;58.86
6136;BME280;24008;42.664;23.372;2022-07-29T05:11:05;94920.88;;;27.15;57.54
6136;BME280;24008;42.664;23.372;2022-07-29T05:13:31;94913.97;;;27.81;53.69
6136;BME280;24008;42.664;23.372;2022-07-29T05:15:58;94899.06;;;28.09;52.52
6136;BME280;24008;42.664;23.372;2022-07-29T05:18:25;94922.84;;;28.41;51.65
6136;BME280;24008;42.664;23.372;2022-07-29T05:20:54;94905.00;;;28.70;49.60
6136;BME280;24008;42.664;23.372;2022-07-29T05:23:21;94938.91;;;29.25;48.61
6136;BME280;24008;42.664;23.372;2022-07-29T05:25:47;94932.28;;;29.22;49.05
6136;BME280;24008;42.664;23.372;2022-07-29T05:28:15;94939.91;;;28.38;52.86
6136;BME280;24008;42.664;23.372;2022-07-29T05:30:42;94916.09;;;28.77;48.37
6136;BME280;24008;42.664;23.372;2022-07-29T05:33:10;94935.19;;;29.53;46.13
6136;BME280;24008;42.664;23.372;2022-07-29T05:35:37;94924.94;;;29.98;45.00
6136;BME280;24008;42.664;23.372;2022-07-29T05:38:05;94904.66;;;30.09;44.72
6136;BME280;24008;42.664;23.372;2022-07-29T05:40:32;94911.91;;;30.39;43.90
6136;BME280;24008;42.664;23.372;2022-07-29T05:42:59;94928.25;;;30.46;43.65
6136;BME280;24008;42.664;23.372;2022-07-29T05:45:26;94905.47;;;30.09;43.18
6136;BME280;24008;42.664;23.372;2022-07-29T05:47:53;94894.44;;;30.18;43.20
6136;BME280;24008;42.664;23.372;2022-07-29T05:50:20;94926.75;;;30.60;43.29
6136;BME280;24008;42.664;23.372;2022-07-29T05:52:47;94807.66;;;30.01;42.48
6136;BME280;24008;42.664;23.372;2022-07-29T05:55:15;94941.56;;;30.82;42.42
6136;BME280;24008;42.664;23.372;2022-07-29T05:57:42;94891.34;;;30.46;42.81
6136;BME280;24008;42.664;23.372;2022-07-29T06:00:11;94934.66;;;30.60;43.11
6136;BME280;24008;42.664;23.372;2022-07-29T06:02:38;94904.38;;;30.00;43.69
6136;BME280;24008;42.664;23.372;2022-07-29T06:05:06;94893.16;;;29.73;44.42
6136;BME280;24008;42.664;23.372;2022-07-29T06:07:34;94925.59;;;30.31;43.93
6136;BME280;24008;42.664;23.372;2022-07-29T06:10:01;94937.28;;;30.55;43.27
6136;BME280;24008;42.664;23.372;2022-07-29T06:12:29;94922.06;;;30.10;43.44
6136;BME280;24008;42.664;23.372;2022-07-29T06:14:56;94948.66;;;29.98;44.30
6136;BME280;24008;42.664;23.372;2022-07-29T06:17:23;94884.19;;;29.74;43.84
6136;BME280;24008;42.664;23.372;2022-07-29T06:19:50;94943.50;;;30.24;44.36
6136;BME280;24008;42.664;23.372;2022-07-29T06:22:17;94946.94;;;30.29;44.24
6136;BME280;24008;42.664;23.372;2022-07-29T06:24:44;94939.56;;;30.31;44.19
6136;BME280;24008;42.664;23.372;2022-07-29T06:27:11;94909.16;;;30.08;44.59
6136;BME280;24008;42.664;23.372;2022-07-29T06:29:40;94902.41;;;30.38;43.63
6136;BME280;24008;42.664;23.372;2022-07-29T06:32:07;94928.88;;;30.63;43.71
6136;BME280;24008;42.664;23.372;2022-07-29T06:34:34;94936.88;;;31.09;43.24
6136;BME280;24008;42.664;23.372;2022-07-29T06:37:06;94894.59;;;30.99;43.16
6136;BME280;24008;42.664;23.372;2022-07-29T06:39:34;94942.66;;;31.67;42.02
6136;BME280;24008;42.664;23.372;2022-07-29T06:42:00;94932.09;;;31.57;41.81
6136;BME280;24008;42.664;23.372;2022-07-29T06:44:27;94920.13;;;31.95;40.73
6136;BME280;24008;42.664;23.372;2022-07-29T06:46:56;94913.69;;;32.26;39.01
6136;BME280;24008;42.664;23.372;2022-07-29T06:49:23;94935.63;;;32.27;39.35
6136;BME280;24008;42.664;23.372;2022-07-29T06:51:51;94921.13;;;32.24;39.57
6136;BME280;24008;42.664;23.372;2022-07-29T06:54:18;94913.16;;;32.29;38.98
6136;BME280;24008;42.664;23.372;2022-07-29T06:56:45;94937.75;;;32.25;39.03
6136;BME280;24008;42.664;23.372;2022-07-29T06:59:12;94906.13;;;31.94;39.39
6136;BME280;24008;42.664;23.372;2022-07-29T07:01:41;94917.25;;;31.81;40.01
6136;BME280;24008;42.664;23.372;2022-07-29T07:04:10;94885.31;;;31.52;40.02
6136;BME280;24008;42.664;23.372;2022-07-29T07:06:37;94914.59;;;31.96;39.86
6136;BME280;24008;42.664;23.372;2022-07-29T07:09:04;94921.88;;;32.25;39.00
6136;BME280;24008;42.664;23.372;2022-07-29T07:11:32;94924.97;;;31.62;39.85
6136;BME280;24008;42.664;23.372;2022-07-29T07:13:59;94921.53;;;31.57;39.66
6136;BME280;24008;42.664;23.372;2022-07-29T07:16:25;94926.56;;;31.33;39.92
6136;BME280;24008;42.664;23.372;2022-07-29T07:18:53;94929.94;;;30.83;41.08
6136;BME280;24008;42.664;23.372;2022-07-29T07:21:21;94934.97;;;30.74;40.85
6136;BME280;24008;42.664;23.372;2022-07-29T07:23:48;94894.31;;;30.95;40.52
6136;BME280;24008;42.664;23.372;2022-07-29T07:26:15;94927.34;;;31.74;38.91
6136;BME280;24008;42.664;23.372;2022-07-29T07:28:42;94880.81;;;31.58;38.65
6136;BME280;24008;42.664;23.372;2022-07-29T07:31:09;94927.75;;;32.11;37.96
6136;BME280;24008;42.664;23.372;2022-07-29T07:33:36;94912.28;;;30.98;39.61
6136;BME280;24008;42.664;23.372;2022-07-29T07:36:03;94903.06;;;30.91;39.65
6136;BME280;24008;42.664;23.372;2022-07-29T07:38:31;94919.94;;;31.45;39.30
6136;BME280;24008;42.664;23.372;2022-07-29T07:40:58;94897.53;;;31.38;39.01
6136;BME280;24008;42.664;23.372;2022-07-29T07:43:25;94880.34;;;31.30;39.12
6136;BME280;24008;42.664;23.372;2022-07-29T07:45:52;94886.38;;;31.66;38.15
6136;BME280;24008;42.664;23.372;2022-07-29T07:48:19;94873.34;;;31.90;37.58
6136;BME280;24008;42.664;23.372;2022-07-29T07:50:46;94921.88;;;32.30;37.57
6136;BME280;24008;42.664;23.372;2022-07-29T07:53:15;94894.97;;;32.07;37.56
6136;BME280;24008;42.664;23.372;2022-07-29T07:55:45;94914.00;;;32.09;37.55
6136;BME280;24008;42.664;23.372;2022-07-29T07:58:12;94883.59;;;32.07;37.67
6136;BME280;24008;42.664;23.372;2022-07-29T08:00:39;94922.66;;;32.84;37.16
6136;BME280;24008;42.664;23.372;2022-07-29T08:03:06;94836.03;;;32.51;35.08
6136;BME280;24008;42.664;23.372;2022-07-29T08:05:34;94858.53;;;32.48;34.92
6136;BME280;24008;42.664;23.372;2022-07-29T08:08:01;94917.38;;;32.79;35.24
6136;BME280;24008;42.664;23.372;2022-07-29T08:10:28;94930.59;;;32.84;35.15
6136;BME280;24008;42.664;23.372;2022-07-29T08:13:14;94885.59;;;32.84;35.37
6136;BME280;24008;42.664;23.372;2022-07-29T08:15:41;94905.03;;;33.04;35.02
6136;BME280;24008;42.664;23.372;2022-07-29T08:18:10;94890.47;;;32.62;34.79
6136;BME280;24008;42.664;23.372;2022-07-29T08:20:37;94887.75;;;32.33;35.32
6136;BME280;24008;42.664;23.372;2022-07-29T08:23:05;94867.84;;;32.41;35.38
6136;BME280;24008;42.664;23.372;2022-07-29T08:25:35;94802.63;;;32.60;34.10
6136;BME280;24008;42.664;23.372;2022-07-29T08:28:03;94905.16;;;33.51;33.70
6136;BME280;24008;42.664;23.372;2022-07-29T08:30:32;94811.63;;;32.59;33.69
6136;BME280;24008;42.664;23.372;2022-07-29T08:32:59;94918.00;;;33.39;33.82
6136;BME280;24008;42.664;23.372;2022-07-29T08:35:26;94913.19;;;33.99;33.06
6136;BME280;24008;42.664;23.372;2022-07-29T08:37:53;94888.47;;;33.80;31.45
6136;BME280;24008;42.664;23.372;2022-07-29T08:40:22;94872.97;;;33.39;31.92
6136;BME280;24008;42.664;23.372;2022-07-29T08:42:49;94901.75;;;33.75;31.69
6136;BME280;24008;42.664;23.372;2022-07-29T08:45:16;94884.84;;;33.94;31.76
6136;BME280;24008;42.664;23.372;2022-07-29T08:47:45;94903.44;;;33.66;31.50
6136;BME280;24008;42.664;23.372;2022-07-29T08:50:12;94895.22;;;33.38;32.06
6136;BME280;24008;42.664;23.372;2022-07-29T08:52:40;94870.28;;;33.44;31.48
6136;BME280;24008;42.664;23.372;2022-07-29T08:55:09;94904.91;;;33.53;31.34
6136;BME280;24008;42.664;23.372;2022-07-29T08:57:38;94899.72;;;33.38;31.89
6136;BME280;24008;42.664;23.372;2022-07-29T09:00:07;94909.44;;;33.47;31.93
6136;BME280;24008;42.664;23.372;2022-07-29T09:02:39;94898.84;;;33.76;31.49
6136;BME280;24008;42.664;23.372;2022-07-29T09:05:08;94898.72;;;34.10;31.30
6136;BME280;24008;42.664;23.372;2022-07-29T09:07:36;94892.78;;;34.98;29.31
6136;BME280;24008;42.664;23.372;2022-07-29T09:10:08;94897.63;;;35.43;28.65
6136;BME280;24008;42.664;23.372;2022-07-29T09:12:35;94896.72;;;34.82;29.56
6136;BME280;24008;42.664;23.372;2022-07-29T09:15:02;94894.75;;;33.60;30.84
6136;BME280;24008;42.664;23.372;2022-07-29T09:17:43;94881.31;;;32.44;32.73
6136;BME280;24008;42.664;23.372;2022-07-29T09:20:13;94887.47;;;31.35;34.71
6136;BME280;24008;42.664;23.372;2022-07-29T09:22:40;94896.69;;;30.66;36.50
6136;BME280;24008;42.664;23.372;2022-07-29T09:25:07;94892.88;;;30.32;36.74
6136;BME280;24008;42.664;23.372;2022-07-29T09:27:35;94810.91;;;29.56;37.13
6136;BME280;24008;42.664;23.372;2022-07-29T09:30:04;94886.00;;;30.21;38.12
6136;BME280;24008;42.664;23.372;2022-07-29T09:32:32;94896.59;;;30.31;37.78
6136;BME280;24008;42.664;23.372;2022-07-29T09:35:17;94782.13;;;30.32;36.67
6136;BME280;24008;42.664;23.372;2022-07-29T09:37:45;94886.03;;;31.93;35.36
6136;BME280;24008;42.664;23.372;2022-07-29T09:40:13;94858.81;;;32.47;33.82
6136;BME280;24008;42.664;23.372;2022-07-29T09:42:41;94869.91;;;33.27;33.00
6136;BME280;24008;42.664;23.372;2022-07-29T09:45:09;94887.88;;;33.83;31.99
6136;BME280;24008;42.664;23.372;2022-07-29T09:47:44;94883.81;;;34.14;31.75
6136;BME280;24008;42.664;23.372;2022-07-29T09:50:13;94875.63;;;34.35;31.30
6136;BME280;24008;42.664;23.372;2022-07-29T09:52:49;94844.22;;;33.99;31.06
6136;BME280;24008;42.664;23.372;2022-07-29T09:55:16;94873.47;;;34.55;30.65
6136;BME280;24008;42.664;23.372;2022-07-29T09:57:44;94829.66;;;34.39;30.89
6136;BME280;24008;42.664;23.372;2022-07-29T10:00:13;94807.16;;;34.13;30.69
6136;BME280;24008;42.664;23.372;2022-07-29T10:02:42;94865.31;;;34.09;31.38
6136;BME280;24008;42.664;23.372;2022-07-29T10:05:18;94858.78;;;33.25;32.64
6136;BME280;24008;42.664;23.372;2022-07-29T10:07:49;94838.66;;;32.56;32.40
6136;BME280;24008;42.664;23.372;2022-07-29T10:10:21;94838.84;;;32.15;33.46
6136;BME280;24008;42.664;23.372;2022-07-29T10:12:50;94846.25;;;31.44;34.58
6136;BME280;24008;42.664;23.372;2022-07-29T10:15:17;94845.78;;;31.27;35.38
6136;BME280;24008;42.664;23.372;2022-07-29T10:17:45;94841.81;;;31.19;35.82
6136;BME280;24008;42.664;23.372;2022-07-29T10:20:13;94819.88;;;30.98;36.17
6136;BME280;24008;42.664;23.372;2022-07-29T10:22:40;94800.63;;;30.67;35.48
6136;BME280;24008;42.664;23.372;2022-07-29T10:25:10;94841.28;;;31.22;35.67
6136;BME280;24008;42.664;23.372;2022-07-29T10:27:37;94815.81;;;31.72;33.97
6136;BME280;24008;42.664;23.372;2022-07-29T10:30:05;94832.56;;;32.55;33.09
6136;BME280;24008;42.664;23.372;2022-07-29T10:32:39;94804.97;;;33.53;31.41
6136;BME280;24008;42.664;23.372;2022-07-29T10:35:34;94827.19;;;34.05;30.29
6136;BME280;24008;42.664;23.372;2022-07-29T10:38:27;94788.78;;;33.79;30.79
6136;BME280;24008;42.664;23.372;2022-07-29T10:41:09;94830.19;;;34.55;28.80
6136;BME280;24008;42.664;23.372;2022-07-29T10:43:55;94826.91;;;34.44;30.23
6136;BME280;24008;42.664;23.372;2022-07-29T10:46:24;94829.88;;;34.00;30.24
6136;BME280;24008;42.664;23.372;2022-07-29T10:49:18;94815.88;;;33.76;29.70
6136;BME280;24008;42.664;23.372;2022-07-29T10:52:04;94799.50;;;34.11;29.56
6136;BME280;24008;42.664;23.372;2022-07-29T10:54:44;94812.75;;;33.92;30.56
6136;BME280;24008;42.664;23.372;2022-07-29T10:57:22;94795.25;;;33.68;30.35
6136;BME280;24008;42.664;23.372;2022-07-29T11:00:30;94797.72;;;33.83;30.37
6136;BME280;24008;42.664;23.372;2022-07-29T11:02:57;94781.41;;;33.52;30.39
6136;BME280;24008;42.664;23.372;2022-07-29T11:05:24;94789.69;;;32.87;31.83
6136;BME280;24008;42.664;23.372;2022-07-29T11:08:20;94804.44;;;32.65;32.49
6136;BME280;24008;42.664;23.372;2022-07-29T11:10:49;94791.72;;;32.67;31.58
6136;BME280;24008;42.664;23.372;2022-07-29T11:13:51;94797.59;;;32.59;32.09
6136;BME280;24008;42.664;23.372;2022-07-29T11:16:21;94784.16;;;32.11;33.04
6136;BME280;24008;42.664;23.372;2022-07-29T11:19:20;94800.22;;;31.55;33.72
6136;BME280;24008;42.664;23.372;2022-07-29T11:21:47;94761.53;;;31.25;34.77
6136;BME280;24008;42.664;23.372;2022-07-29T11:24:17;94772.88;;;31.26;34.68
6136;BME280;24008;42.664;23.372;2022-07-29T11:26:44;94790.88;;;31.13;35.17
6136;BME280;24008;42.664;23.372;2022-07-29T11:29:19;94762.06;;;31.02;35.54
6136;BME280;24008;42.664;23.372;2022-07-29T11:31:49;94774.72;;;31.25;35.05
6136;BME280;24008;42.664;23.372;2022-07-29T11:34:24;94772.88;;;31.26;34.71
6136;BME280;24008;42.664;23.372;2022-07-29T11:37:14;94782.13;;;31.08;34.82
6136;BME280;24008;42.664;23.372;2022-07-29T11:39:42;94786.09;;;30.80;35.64
6136;BME280;24008;42.664;23.372;2022-07-29T11:42:40;94783.75;;;30.89;35.03
6136;BME280;24008;42.664;23.372;2022-07-29T11:45:11;94772.91;;;30.80;34.69
6136;BME280;24008;42.664;23.372;2022-07-29T11:47:41;94773.72;;;30.70;34.33
6136;BME280;24008;42.664;23.372;2022-07-29T11:50:10;94773.19;;;30.78;34.44
6136;BME280;24008;42.664;23.372;2022-07-29T11:52:39;94718.31;;;30.60;34.25
6136;BME280;24008;42.664;23.372;2022-07-29T11:55:12;94753.63;;;31.00;34.47
6136;BME280;24008;42.664;23.372;2022-07-29T11:57:46;94764.19;;;31.15;34.73
6136;BME280;24008;42.664;23.372;2022-07-29T12:00:24;94762.63;;;31.09;33.72
6136;BME280;24008;42.664;23.372;2022-07-29T12:02:52;94758.63;;;31.22;33.93
6136;BME280;24008;42.664;23.372;2022-07-29T12:05:19;94757.28;;;31.19;34.27
6136;BME280;24008;42.664;23.372;2022-07-29T12:07:47;94762.06;;;31.17;33.91
6136;BME280;24008;42.664;23.372;2022-07-29T12:10:15;94757.59;;;31.12;34.23
6136;BME280;24008;42.664;23.372;2022-07-29T12:12:42;94756.25;;;31.25;34.12
6136;BME280;24008;42.664;23.372;2022-07-29T12:15:18;94754.66;;;31.24;33.81
6136;BME280;24008;42.664;23.372;2022-07-29T12:17:46;94755.94;;;31.32;34.91
6136;BME280;24008;42.664;23.372;2022-07-29T12:20:22;94738.78;;;31.34;34.41
6136;BME280;24008;42.664;23.372;2022-07-29T12:22:49;94720.81;;;31.36;34.27
6136;BME280;24008;42.664;23.372;2022-07-29T12:25:16;94754.25;;;31.56;33.92
6136;BME280;24008;42.664;23.372;2022-07-29T12:27:44;94692.91;;;31.15;34.02
6136;BME280;24008;42.664;23.372;2022-07-29T12:30:13;94719.31;;;31.15;33.46
6136;BME280;24008;42.664;23.372;2022-07-29T12:32:43;94739.91;;;31.13;33.63
6136;BME280;24008;42.664;23.372;2022-07-29T12:35:12;94673.44;;;30.75;34.10
6136;BME280;24008;42.664;23.372;2022-07-29T12:37:42;94741.97;;;31.26;33.82
6136;BME280;24008;42.664;23.372;2022-07-29T12:40:11;94723.50;;;31.06;33.66
6136;BME280;24008;42.664;23.372;2022-07-29T12:42:39;94747.75;;;31.38;34.48
6136;BME280;24008;42.664;23.372;2022-07-29T12:45:07;94742.91;;;31.56;33.64
6136;BME280;24008;42.664;23.372;2022-07-29T12:47:52;94735.50;;;31.58;34.91
6136;BME280;24008;42.664;23.372;2022-07-29T12:50:19;94681.50;;;31.20;34.52
6136;BME280;24008;42.664;23.372;2022-07-29T12:52:47;94740.97;;;31.76;33.63
6136;BME280;24008;42.664;23.372;2022-07-29T12:55:14;94723.78;;;31.79;33.19
6136;BME280;24008;42.664;23.372;2022-07-29T12:57:45;94733.28;;;31.85;33.81
6136;BME280;24008;42.664;23.372;2022-07-29T13:00:14;94718.53;;;31.74;33.22
6136;BME280;24008;42.664;23.372;2022-07-29T13:02:42;94720.69;;;31.62;33.00
6136;BME280;24008;42.664;23.372;2022-07-29T13:05:10;94701.22;;;31.42;33.56
6136;BME280;24008;42.664;23.372;2022-07-29T13:07:38;94717.31;;;31.46;34.42
6136;BME280;24008;42.664;23.372;2022-07-29T13:10:13;94642.50;;;30.96;34.02
6136;BME280;24008;42.664;23.372;2022-07-29T13:13:02;94721.63;;;31.27;33.94